Terminal Aerodrome Forecast
Issued by NWS Goodland, KS

Home | Current Version | Previous Version | Text Only | Print | Product List | Glossary On
Versions: 1 2 3 4 5 6 7 8 9 10 11 12 13
782
FTUS43 KGLD 192335
TAFGLD
TAF
KGLD 192335Z 2000/2024 21013G21KT P6SM FEW250
     FM200200 28013KT P6SM FEW250
     FM200300 31013KT P6SM FEW250 WS020/32035KT
     FM201000 34009KT P6SM FEW250
     FM201700 05006KT P6SM FEW250
     FM202000 13007KT P6SM FEW250=

USA.gov is the U.S. government's official web portal to all federal, state and local government web resources and services.